Latest Weather Observations for Kingaroy

IDQ60901

Issued at 3:01 am EST Wednesday 18 January 2017 (issued every 10 minutes, with the page automatically refreshed every 10 minutes)

About weather observations | Map of Brisbane area stations | Latest observations for Brisbane area | Other Formats
Station Details ID: 040922 Name: KINGAROY AIRPORT Lat: -26.57 Lon: 151.84 Height: 433.67 m
Data from the previous 72 hours. | See also: Recent months at Kingaroy
Date/Time
EST
Temp
°C
App
Temp
°C
Dew
Point
°C
Rel
Hum
%
Delta-T
°C
Wind Press
QNH
hPa
Press
MSL
hPa
Rain since
9am
mm
Dir  Spd
km/h
Gust
km/h
Spd
kts
Gust
kts
18/02:57am 18.5 20.9 17.0 91 0.9 CALM 0 0 0 0 1015.6 1013.1 0.0
18/02:30am 19.1 21.6 17.2 89 1.2 CALM 0 0 0 0 1015.7 1013.2 0.0
18/02:00am 19.7 22.4 17.7 88 1.2 CALM 0 0 0 0 1015.8 1013.3 0.0
18/01:30am 19.8 22.1 17.8 88 1.3 E 2 7 1 4 1016.0 1013.5 0.0
18/01:00am 20.1 21.5 17.3 84 1.7 NE 6 9 3 5 1016.2 1013.7 0.0
18/12:30am 20.7 22.9 17.5 82 2.0 NE 2 7 1 4 1016.5 1013.9 0.0
18/12:00am 21.2 22.8 17.8 81 2.1 NE 6 9 3 5 1016.9 1014.4 0.0
 
Date/Time
EST
Temp
°C
App
Temp
°C
Dew
Point
°C
Rel
Hum
%
Delta-T
°C
Wind Press
QNH
hPa
Press
MSL
hPa
Rain since
9am
mm
Dir  Spd
km/h
Gust
km/h
Spd
kts
Gust
kts
17/11:30pm 21.9 24.2 18.5 81 2.2 NNE 4 9 2 5 1017.3 1014.8 0.0
17/11:00pm 22.5 23.9 18.7 79 2.4 N 9 15 5 8 1017.4 1014.9 0.0
17/10:30pm 23.1 23.9 18.2 74 3.1 N 11 17 6 9 1017.7 1015.2 0.0
17/10:00pm 23.4 24.9 18.9 76 2.9 N 9 13 5 7 1017.9 1015.4 0.0
17/09:30pm 24.0 25.6 19.1 74 3.2 NE 9 17 5 9 1017.8 1015.3 0.0
17/09:00pm 24.7 26.2 18.9 70 3.8 ENE 9 19 5 10 1017.6 1015.1 0.0
17/08:30pm 25.5 26.4 19.2 68 4.1 ENE 13 20 7 11 1017.3 1014.8 0.0
17/08:00pm 26.2 27.0 19.1 65 4.6 ENE 13 20 7 11 1017.1 1014.6 0.0
17/07:30pm 27.1 27.5 18.9 61 5.4 ENE 15 26 8 14 1016.8 1014.3 0.0
17/07:00pm 29.0 29.5 17.5 49 7.4 E 11 22 6 12 1016.5 1013.9 0.0
17/06:30pm 30.0 30.1 17.5 47 8.1 E 13 15 7 8 1015.9 1013.4 0.0
17/06:00pm 31.2 31.0 15.6 39 9.8 E 11 15 6 8 1015.6 1013.1 0.0
17/05:30pm 32.1 31.8 16.4 39 10.0 E 13 17 7 9 1015.3 1012.8 0.0
17/05:00pm 31.8 31.7 16.1 38 10.0 NNE 11 20 6 11 1015.2 1012.7 0.0
17/04:30pm 31.6 31.7 15.5 37 10.1 ESE 9 15 5 8 1015.2 1012.7 0.0
17/04:00pm 31.9 32.0 15.4 37 10.4 E 9 15 5 8 1015.2 1012.7 0.0
17/03:30pm 31.9 31.1 15.0 36 10.6 E 13 20 7 11 1015.4 1012.9 0.0
17/03:00pm 31.5 32.0 15.0 36 10.3 E 6 13 3 7 1015.5 1013.0 0.0
17/02:30pm 31.5 30.7 15.0 36 10.3 ESE 13 20 7 11 1015.7 1013.2 0.0
17/02:00pm 32.0 33.0 16.3 39 10.0 S 6 15 3 8 1016.1 1013.6 0.0
17/01:30pm 31.9 32.3 15.4 37 10.4 WSW 7 11 4 6 1016.4 1013.8 0.0
17/01:00pm 31.7 30.9 15.2 36 10.3 ESE 13 17 7 9 1016.8 1014.3 0.0
17/12:30pm 31.2 31.5 16.0 40 9.6 SSE 9 22 5 12 1017.1 1014.6 0.0
17/12:00pm 29.6 29.6 15.3 41 8.9 NNE 9 17 5 9 1017.6 1015.1 0.0
17/11:30am 30.1 30.3 15.8 42 9.0 SE 9 20 5 11 1018.1 1015.6 0.0
17/11:00am 29.9 30.7 17.4 47 8.0 NE 9 17 5 9 1018.5 1016.0 0.0
17/10:30am 28.2 28.3 15.5 46 7.9 N 9 17 5 9 1018.9 1016.4 0.0
17/10:00am 27.6 28.2 16.9 52 6.8 NNW 9 15 5 8 1019.1 1016.6 0.0
17/09:30am 27.5 29.3 18.2 57 6.0 NE 6 17 3 9 1019.2 1016.7 0.0
17/09:00am 25.1 25.5 17.3 62 4.9 N 11 20 6 11 1019.4 1016.9 0.0
17/08:30am 25.0 26.4 18.7 68 4.1 NNE 9 15 5 8 1019.5 1017.0 0.0
17/08:00am 24.5 25.8 18.4 69 3.9 NNE 9 13 5 7 1019.6 1017.1 0.0
17/07:30am 24.1 26.1 19.2 74 3.2 ESE 7 13 4 7 1019.5 1017.0 0.0
17/07:00am 22.9 25.1 19.5 81 2.2 ESE 7 11 4 6 1019.3 1016.8 0.0
17/06:30am 21.9 25.3 19.3 85 1.7 CALM 0 0 0 0 1019.0 1016.5 0.0
17/06:00am 20.6 23.5 19.1 91 1.0 SE 2 7 1 4 1018.6 1016.1 0.0
17/05:30am 18.4 20.8 17.1 92 0.8 CALM 0 6 0 3 1018.4 1015.9 0.0
17/05:00am 19.2 22.0 17.9 92 0.8 CALM 0 0 0 0 1018.0 1015.5 0.0
17/04:30am 19.6 21.8 18.4 93 0.8 ESE 4 7 2 4 1017.6 1015.1 0.0
17/04:00am 19.5 20.7 18.3 93 0.8 S 9 9 5 5 1017.3 1014.8 0.0
17/03:30am 19.7 21.5 18.4 92 0.8 S 6 9 3 5 1017.2 1014.7 0.0
17/03:11am 19.8 21.4 18.3 91 0.9 SSE 7 11 4 6 1017.2 1014.7 0.0
17/03:00am 19.7 22.4 17.8 89 1.2 CALM 0 0 0 0 1017.2 1014.7 0.0
17/02:30am 20.4 22.3 18.5 89 1.2 E 6 7 3 4 1017.2 1014.7 0.0
17/02:00am 20.1 23.1 18.4 90 1.1 CALM 0 0 0 0 1017.3 1014.8 0.0
17/01:54am 20.0 22.6 18.3 90 1.1 ESE 2 6 1 3 1017.3 1014.8 0.0
17/01:47am 20.0 21.8 18.3 90 1.1 SSE 6 7 3 4 1017.4 1014.9 0.0
17/01:30am 20.5 23.6 18.6 89 1.2 CALM 0 0 0 0 1017.5 1015.0 0.0
17/01:00am 20.6 22.6 18.7 89 1.2 E 6 7 3 4 1017.8 1015.3 0.0
17/12:30am 20.4 22.4 18.7 90 1.1 E 6 7 3 4 1017.7 1015.2 0.0
17/12:20am 20.4 22.4 18.7 90 1.1 E 6 9 3 5 1017.8 1015.3 0.0
17/12:00am 20.1 21.9 18.2 89 1.2 E 6 6 3 3 1017.9 1015.4 0.0
 
Date/Time
EST
Temp
°C
App
Temp
°C
Dew
Point
°C
Rel
Hum
%
Delta-T
°C
Wind Press
QNH
hPa
Press
MSL
hPa
Rain since
9am
mm
Dir  Spd
km/h
Gust
km/h
Spd
kts
Gust
kts
16/11:30pm 21.0 23.7 18.6 86 1.5 E 2 9 1 5 1018.1 1015.6 0.0
16/11:00pm 21.5 23.9 18.9 85 1.7 NNE 4 9 2 5 1018.2 1015.7 0.0
16/10:30pm 22.1 24.3 19.1 83 1.9 ENE 6 11 3 6 1018.2 1015.7 0.0
16/10:00pm 22.5 24.5 19.1 81 2.2 ENE 7 11 4 6 1018.2 1015.7 0.0
16/09:30pm 23.1 24.3 19.1 78 2.6 ENE 11 19 6 10 1018.0 1015.5 0.0
16/09:00pm 23.7 24.6 19.2 76 2.9 E 13 20 7 11 1017.9 1015.4 0.0
16/08:30pm 24.3 25.4 18.9 72 3.5 ENE 11 17 6 9 1017.6 1015.1 0.0
16/08:00pm 25.3 26.1 19.0 68 4.1 ENE 13 22 7 12 1017.2 1014.7 0.0
16/07:30pm 26.4 27.0 18.5 62 5.1 ENE 13 24 7 13 1016.9 1014.4 0.0
16/07:00pm 27.4 27.2 17.6 55 6.3 E 15 20 8 11 1016.4 1013.8 0.0
16/06:30pm 28.6 28.8 16.8 48 7.5 ENE 11 17 6 9 1015.8 1013.3 0.0
16/06:00pm 29.4 29.0 16.2 44 8.3 ENE 13 22 7 12 1015.3 1012.8 0.0
16/05:30pm 30.6 29.4 16.2 41 9.1 ESE 17 28 9 15 1014.9 1012.4 0.0
16/05:00pm 31.5 29.9 15.0 36 10.3 ENE 17 26 9 14 1014.5 1011.9 0.0
16/04:30pm 30.3 27.9 14.4 38 9.8 E 20 28 11 15 1014.2 1011.6 0.0
16/04:00pm 31.8 30.7 14.4 34 10.8 ENE 13 26 7 14 1014.1 1011.5 0.0
16/03:30pm 30.8 29.2 14.0 36 10.3 NE 15 26 8 14 1014.2 1011.6 0.0
16/03:00pm 32.3 31.0 15.7 36 10.5 E 17 30 9 16 1014.3 1011.7 0.0
16/02:30pm 31.2 30.1 14.4 36 10.4 E 13 20 7 11 1014.5 1011.9 0.0
16/02:00pm 30.8 29.4 14.4 36 10.1 NE 15 20 8 11 1014.8 1012.3 0.0
16/01:30pm 31.7 31.0 16.4 39 9.8 ENE 15 28 8 15 1015.0 1012.5 0.0
16/01:00pm 31.0 30.5 15.8 40 9.6 ENE 13 24 7 13 1015.3 1012.8 0.0
16/12:30pm 31.1 31.7 17.8 45 8.6 ENE 11 20 6 11 1015.4 1012.9 0.0
16/12:00pm 30.0 28.8 17.1 46 8.3 E 19 28 10 15 1015.5 1013.0 0.0
16/11:30am 28.9 28.9 17.1 49 7.5 ESE 13 22 7 12 1015.9 1013.4 0.0
16/11:00am 29.3 29.3 18.1 51 7.3 ENE 15 28 8 15 1016.1 1013.6 0.0
16/10:30am 28.3 28.6 18.7 56 6.3 E 15 22 8 12 1016.2 1013.7 0.0
16/10:00am 27.0 27.6 17.8 57 5.9 E 11 20 6 11 1016.5 1013.9 0.0
16/09:30am 27.4 27.4 18.1 57 6.0 E 15 26 8 14 1016.5 1013.9 0.0
16/09:00am 25.7 26.9 19.1 67 4.3 ENE 11 17 6 9 1016.5 1013.9 7.4
16/08:30am 25.5 27.1 20.7 75 3.2 E 13 19 7 10 1016.6 1014.0 7.2
16/08:00am 25.1 25.8 20.4 75 3.1 ESE 17 30 9 16 1016.4 1013.8 7.2
16/07:57am 25.2 26.2 20.2 74 3.3 E 15 30 8 16 1016.2 1013.7 7.2
16/07:46am 24.9 25.2 20.4 76 3.0 E 19 24 10 13 1016.2 1013.7 7.2
16/07:40am 24.8 25.1 20.5 77 2.9 E 19 24 10 13 1016.2 1013.7 7.2
16/07:30am 24.9 26.5 21.4 81 2.4 ESE 15 20 8 11 1016.1 1013.6 7.2
16/07:24am 24.2 25.4 20.7 81 2.3 ESE 15 22 8 12 1016.1 1013.6 7.2
16/07:00am 24.1 26.5 21.6 86 1.7 ESE 11 17 6 9 1015.9 1013.4 7.2
16/06:30am 23.1 25.5 20.8 87 1.5 SE 9 13 5 7 1015.7 1013.2 7.2
16/06:07am 22.8 25.3 21.1 90 1.1 ESE 9 13 5 7 1015.4 1012.9 7.2
16/06:00am 22.5 25.0 21.0 91 1.0 ESE 9 13 5 7 1015.4 1012.9 7.2
16/05:52am 22.3 24.8 21.1 93 0.8 ESE 9 13 5 7 1015.3 1012.8 7.2
16/05:30am 21.6 24.0 20.8 95 0.5 ESE 9 13 5 7 1014.9 1012.4 7.2
16/05:00am 21.5 23.8 20.7 95 0.5 ESE 9 13 5 7 1014.5 1011.9 7.2
16/04:30am 21.8 24.2 20.8 94 0.7 ESE 9 13 5 7 1014.2 1011.6 7.2
16/04:00am 22.1 25.2 21.1 94 0.7 E 6 7 3 4 1014.0 1011.4 7.2
16/03:53am 22.1 25.2 21.1 94 0.7 E 6 11 3 6 1014.0 1011.4 7.2
16/03:30am 22.2 24.0 21.2 94 0.7 ESE 13 17 7 9 1013.6 1011.1 7.2
16/03:12am 22.3 24.2 21.3 94 0.7 ESE 13 17 7 9 1013.4 1010.9 7.2
16/03:08am 22.3 24.2 21.3 94 0.7 ESE 13 17 7 9 1013.4 1010.9 7.2
16/03:00am 22.3 24.6 21.3 94 0.7 ESE 11 17 6 9 1013.4 1010.9 7.2
16/02:30am 22.4 25.2 21.6 95 0.5 ESE 9 13 5 7 1013.4 1010.9 7.2
16/02:09am 22.4 25.2 21.6 95 0.5 ESE 9 13 5 7 1013.4 1010.9 7.2
16/02:00am 22.4 25.6 21.6 95 0.5 E 7 13 4 7 1013.4 1010.9 7.2
16/01:30am 22.4 24.8 21.6 95 0.5 E 11 15 6 8 1013.3 1010.8 7.2
16/01:19am 22.4 24.4 21.6 95 0.5 E 13 20 7 11 1013.6 1011.1 7.2
16/01:00am 22.6 23.6 21.8 95 0.5 ESE 19 24 10 13 1013.8 1011.3 5.8
16/12:30am 22.7 25.3 22.0 96 0.5 SE 11 13 6 7 1013.7 1011.2 5.8
16/12:00am 22.6 26.1 21.8 95 0.5 E 6 11 3 6 1014.3 1011.7 5.8
 
Date/Time
EST
Temp
°C
App
Temp
°C
Dew
Point
°C
Rel
Hum
%
Delta-T
°C
Wind Press
QNH
hPa
Press
MSL
hPa
Rain since
9am
mm
Dir  Spd
km/h
Gust
km/h
Spd
kts
Gust
kts
15/11:43pm 22.6 24.4 21.9 96 0.5 ESE 15 22 8 12 1014.6 1012.0 5.8
15/11:30pm 22.6 25.2 21.9 96 0.5 ESE 11 17 6 9 1014.8 1012.3 5.6
15/11:29pm 22.6 25.2 21.9 96 0.5 ESE 11 15 6 8 1014.8 1012.3 5.6
15/11:00pm 22.4 24.1 21.7 96 0.5 ESE 15 22 8 12 1014.8 1012.3 4.8
15/10:52pm 22.3 24.3 21.6 96 0.5 SE 13 20 7 11 1014.8 1012.3 4.8
15/10:42pm 22.4 25.3 21.7 96 0.5 SE 9 11 5 6 1014.6 1012.0 4.8
15/10:30pm 22.3 25.5 21.6 96 0.5 S 7 11 4 6 1014.5 1011.9 4.6
15/10:19pm 22.3 23.6 21.6 96 0.5 S 17 22 9 12 1014.6 1012.0 4.6
15/10:00pm 22.4 25.6 21.7 96 0.5 E 7 17 4 9 1014.5 1011.9 4.2
15/09:30pm 22.2 24.9 21.4 95 0.5 NE 9 15 5 8 1014.2 1011.6 3.0
15/09:00pm 22.1 23.8 20.9 93 0.8 SSE 13 19 7 10 1014.4 1011.8 2.4
15/08:30pm 23.1 25.9 21.5 91 1.1 ENE 9 15 5 8 1014.5 1011.9 0.8
15/08:00pm 23.2 27.7 21.5 90 1.1 CALM 0 0 0 0 1013.7 1011.2 0.8
15/07:52pm 23.2 27.7 21.5 90 1.1 CALM 0 4 0 2 1013.2 1010.7 0.8
15/07:30pm 23.1 26.2 21.5 91 1.1 NNE 7 11 4 6 1013.1 1010.6 0.8
15/07:00pm 23.3 26.5 21.7 91 1.1 N 7 13 4 7 1012.4 1009.8 0.8
15/06:30pm 23.7 26.0 22.1 91 1.1 N 13 19 7 10 1012.1 1009.5 0.8
15/06:00pm 24.1 26.1 21.6 86 1.7 NE 13 26 7 14 1011.9 1009.3 0.8
15/05:56pm 24.3 26.7 21.6 85 1.8 NE 11 20 6 11 1011.9 1009.3 0.8
15/05:30pm 24.3 28.0 21.4 84 1.9 ENE 4 11 2 6 1010.9 1008.4 0.6
15/05:00pm 24.8 27.3 20.3 76 3.0 NNW 7 9 4 5 1010.0 1007.4 0.0
15/04:30pm 24.3 25.3 20.2 78 2.7 NNW 15 20 8 11 1009.8 1007.2 0.0
15/04:00pm 24.6 29.3 21.9 85 1.8 CALM 0 2 0 1 1009.7 1007.1 0.0
15/03:30pm 24.1 26.5 21.6 86 1.7 NW 11 17 6 9 1010.3 1007.7 0.0
15/03:00pm 24.7 25.1 19.8 74 3.2 WNW 17 24 9 13 1010.0 1007.4 0.0
15/02:30pm 29.6 31.2 21.5 61 5.5 ESE 15 24 8 13 1009.7 1007.1 0.0
15/02:00pm 30.4 30.9 21.2 58 6.3 ESE 20 30 11 16 1008.6 1006.1 0.0
15/01:30pm 31.8 33.0 20.7 51 7.5 ENE 15 26 8 14 1009.4 1006.8 0.0
15/01:00pm 32.6 34.2 22.1 54 7.3 ESE 17 32 9 17 1009.6 1007.0 0.0
15/12:30pm 31.5 34.7 21.7 56 6.7 WNW 7 15 4 8 1010.2 1007.6 0.0
15/12:00pm 30.4 32.2 21.2 58 6.3 E 13 20 7 11 1010.3 1007.7 0.0
15/11:30am 31.2 33.1 21.4 56 6.7 ENE 13 26 7 14 1010.3 1007.7 0.0
15/11:00am 31.3 33.3 22.9 61 5.9 E 17 28 9 15 1010.4 1007.8 0.0
15/10:30am 30.4 32.2 21.2 58 6.3 ESE 13 19 7 10 1010.6 1008.1 0.0
15/10:00am 30.7 33.3 21.2 57 6.5 NW 9 19 5 10 1010.4 1007.8 0.0
15/09:30am 30.1 32.9 21.5 60 5.9 NNW 9 19 5 10 1010.4 1007.8 0.0
15/09:00am 28.7 32.1 21.7 66 4.8 S 6 11 3 6 1010.7 1008.2 0.0
15/08:36am 28.4 31.1 21.4 66 4.7 ENE 9 15 5 8 1010.9 1008.4 0.0
15/08:30am 28.7 32.1 22.0 67 4.6 NE 7 11 4 6 1010.9 1008.4 0.0
15/08:09am 27.4 30.6 22.4 74 3.4 ENE 9 13 5 7 1011.1 1008.6 0.0
15/08:00am 26.8 30.5 22.2 76 3.1 NE 6 11 3 6 1011.2 1008.7 0.0
15/07:55am 26.7 30.6 22.5 78 2.9 NE 6 9 3 5 1011.2 1008.7 0.0
15/07:30am 25.8 28.6 22.3 81 2.4 NNE 11 15 6 8 1011.2 1008.7 0.0
15/07:00am 25.5 28.2 22.2 82 2.2 NE 11 17 6 9 1010.9 1008.4 0.0
15/06:50am 25.5 28.7 22.4 83 2.1 ENE 9 17 5 9 1010.9 1008.4 0.0
15/06:30am 25.1 28.6 22.2 84 2.0 ENE 7 11 4 6 1010.8 1008.3 0.0
15/06:00am 24.6 27.7 22.1 86 1.7 ENE 9 13 5 7 1010.4 1007.8 0.0
15/05:30am 24.4 27.5 22.1 87 1.6 ENE 9 13 5 7 1010.3 1007.7 0.0
15/05:02am 24.7 27.7 22.0 85 1.8 ENE 9 15 5 8 1009.9 1007.3 0.0
15/05:00am 24.6 27.6 21.9 85 1.8 ENE 9 15 5 8 1009.8 1007.2 0.0
15/04:30am 25.1 28.1 22.0 83 2.1 E 9 13 5 7 1009.7 1007.1 0.0
15/04:09am 24.9 28.3 22.0 84 2.0 ESE 7 11 4 6 1009.6 1007.0 0.0
15/04:00am 24.6 28.0 21.7 84 2.0 ESE 6 9 3 5 1009.4 1006.8 0.0
15/03:30am 24.9 29.4 21.6 82 2.2 CALM 0 0 0 0 1008.8 1006.3 0.0

Latest Capital City Observations: Canberra | Sydney | Melbourne | Brisbane | Adelaide | Perth | Hobart | Darwin

Other Formats:

Comma delimited format used in spreadsheet applications
http://www.bom.gov.au/fwo/IDQ60901/IDQ60901.94549.axf

JavaScript Object Notation format (JSON) in row-major order
http://www.bom.gov.au/fwo/IDQ60901/IDQ60901.94549.json